createdAt,value
2023-03-02T00:00:16.735Z,1.51
2023-03-02T00:03:55.838Z,1.58
2023-03-02T00:07:29.514Z,1.65
2023-03-02T00:10:57.396Z,1.70
2023-03-02T00:14:26.323Z,1.75
2023-03-02T00:17:54.476Z,1.80
2023-03-02T00:21:21.220Z,1.86
2023-03-02T00:24:49.252Z,1.92
2023-03-02T00:28:16.347Z,1.95
2023-03-02T00:31:43.319Z,1.99
2023-03-02T00:35:11.742Z,1.96
2023-03-02T00:38:40.063Z,1.94
2023-03-02T00:42:07.057Z,1.93
2023-03-02T00:45:34.004Z,1.91
2023-03-02T00:49:05.767Z,1.90
2023-03-02T00:52:34.752Z,1.85
2023-03-02T00:56:05.648Z,1.82
2023-03-02T00:59:35.060Z,1.79
2023-03-02T01:03:19.202Z,1.78
2023-03-02T01:06:48.785Z,1.80
2023-03-02T01:10:16.935Z,1.83
2023-03-02T01:13:45.472Z,1.85
2023-03-02T01:17:13.617Z,1.85
2023-03-02T01:20:40.893Z,1.91
2023-03-02T01:24:09.301Z,1.98
2023-03-02T01:27:43.065Z,2.09
2023-03-02T01:31:17.949Z,2.17
2023-03-02T01:34:48.198Z,2.22
2023-03-02T01:38:16.378Z,2.26
2023-03-02T01:41:53.726Z,2.25
2023-03-02T01:45:53.725Z,2.24
2023-03-02T01:49:47.853Z,2.18
2023-03-02T01:53:20.656Z,2.16
2023-03-02T01:56:53.098Z,2.15
2023-03-02T02:00:36.499Z,2.15
2023-03-02T02:04:03.537Z,2.13
2023-03-02T02:07:31.109Z,2.08
2023-03-02T02:11:01.859Z,2.07
2023-03-02T02:14:30.130Z,2.08
2023-03-02T02:18:00.651Z,2.10
2023-03-02T02:21:29.729Z,2.12
2023-03-02T02:25:05.225Z,2.14
2023-03-02T02:28:39.463Z,2.14
2023-03-02T02:32:14.087Z,2.14
2023-03-02T02:35:41.973Z,2.19
2023-03-02T02:39:15.968Z,2.24
2023-03-02T02:42:50.172Z,2.30
2023-03-02T02:46:17.651Z,2.38
2023-03-02T02:49:45.750Z,2.44
2023-03-02T02:53:17.604Z,2.49
2023-03-02T02:56:46.074Z,2.52
2023-03-02T03:00:21.924Z,2.52
2023-03-02T03:03:54.563Z,2.49
2023-03-02T03:07:25.869Z,2.43
2023-03-02T03:10:54.229Z,2.39
2023-03-02T03:14:24.994Z,2.36
2023-03-02T03:17:57.341Z,2.29
2023-03-02T03:21:25.018Z,2.24
2023-03-02T03:24:52.122Z,2.20
2023-03-02T03:28:19.632Z,2.19
2023-03-02T03:31:46.817Z,2.21
2023-03-02T03:35:15.164Z,2.21
2023-03-02T03:38:43.076Z,2.20
2023-03-02T03:42:11.370Z,2.21
2023-03-02T03:45:38.908Z,2.24
2023-03-02T03:49:06.457Z,2.26
2023-03-02T03:52:33.649Z,2.26
2023-03-02T03:56:24.214Z,2.32
2023-03-02T03:59:52.007Z,2.37
2023-03-02T04:03:20.304Z,2.41
2023-03-02T04:06:47.869Z,2.38
2023-03-02T04:10:18.721Z,2.36
2023-03-02T04:13:46.708Z,2.35
2023-03-02T04:17:13.741Z,2.26
2023-03-02T04:20:45.914Z,2.24
2023-03-02T04:24:15.008Z,2.25
2023-03-02T04:27:44.222Z,2.23
2023-03-02T04:31:12.530Z,2.25
2023-03-02T04:34:39.390Z,2.24
2023-03-02T04:38:06.685Z,2.23
2023-03-02T04:41:34.407Z,2.20
2023-03-02T04:45:01.193Z,2.16
2023-03-02T04:48:27.964Z,2.14
2023-03-02T04:51:54.601Z,2.12
2023-03-02T04:55:24.888Z,2.07
2023-03-02T04:58:51.389Z,2.04
2023-03-02T05:02:18.089Z,2.06
2023-03-02T05:05:44.710Z,2.07
2023-03-02T05:09:11.678Z,2.08
2023-03-02T05:12:54.876Z,2.08
2023-03-02T05:16:22.994Z,2.13
2023-03-02T05:19:50.891Z,2.19
2023-03-02T05:23:25.268Z,2.24
2023-03-02T05:26:52.284Z,2.26
2023-03-02T05:30:20.314Z,2.25
2023-03-02T05:33:46.986Z,2.21
2023-03-02T05:37:13.577Z,2.18
2023-03-02T05:40:42.605Z,2.16
2023-03-02T05:44:12.295Z,2.09
2023-03-02T05:47:39.123Z,2.05
2023-03-02T05:51:06.531Z,1.95
2023-03-02T05:54:33.585Z,1.91
2023-03-02T05:58:00.468Z,1.86
2023-03-02T06:01:27.830Z,1.84
2023-03-02T06:04:54.795Z,1.82
2023-03-02T06:08:22.858Z,1.81
2023-03-02T06:11:49.942Z,1.80
2023-03-02T06:15:17.546Z,1.82
2023-03-02T06:18:44.396Z,1.85
2023-03-02T06:22:11.074Z,1.87
2023-03-02T06:25:41.574Z,1.88
2023-03-02T06:29:08.799Z,1.94
2023-03-02T06:32:35.869Z,2.00
2023-03-02T06:36:03.160Z,2.06
2023-03-02T06:39:30.555Z,2.11
2023-03-02T06:42:57.219Z,2.16
2023-03-02T06:46:23.755Z,2.18
2023-03-02T06:49:50.734Z,2.19
2023-03-02T06:53:18.645Z,2.19
2023-03-02T06:56:45.447Z,2.19
2023-03-02T07:00:17.442Z,2.20
2023-03-02T07:03:44.640Z,2.16
2023-03-02T07:07:11.876Z,2.15
2023-03-02T07:10:40.043Z,2.13
2023-03-02T07:14:06.772Z,2.12
2023-03-02T07:17:35.771Z,2.12
2023-03-02T07:21:02.812Z,2.11
2023-03-02T07:24:29.566Z,2.12
2023-03-02T07:27:56.420Z,2.14
2023-03-02T07:31:23.541Z,2.16
2023-03-02T07:34:50.530Z,2.20
2023-03-02T07:38:17.486Z,2.25
2023-03-02T07:41:44.322Z,2.34
2023-03-02T07:45:14.539Z,2.39
2023-03-02T07:48:42.030Z,2.46
2023-03-02T07:52:09.015Z,2.53
2023-03-02T07:55:35.561Z,2.61
2023-03-02T07:59:02.787Z,2.71
2023-03-02T08:02:29.545Z,2.80
2023-03-02T08:05:56.231Z,2.84
2023-03-02T08:09:22.568Z,2.88
2023-03-02T08:12:51.726Z,2.89
2023-03-02T08:16:20.031Z,2.89
2023-03-02T08:19:46.982Z,2.89
2023-03-02T08:23:13.852Z,2.85
2023-03-02T08:26:41.119Z,2.82
2023-03-02T08:30:10.928Z,2.81
2023-03-02T08:33:43.954Z,2.82
2023-03-02T08:37:11.307Z,2.83
2023-03-02T08:40:37.939Z,2.85
2023-03-02T08:44:05.071Z,2.88
2023-03-02T08:47:32.812Z,2.90
2023-03-02T08:51:01.859Z,2.89
2023-03-02T08:54:29.107Z,2.88
2023-03-02T08:57:56.344Z,2.93
2023-03-02T09:01:25.467Z,2.99
2023-03-02T09:04:52.540Z,3.10
2023-03-02T09:08:19.583Z,3.22
2023-03-02T09:11:47.031Z,3.28
2023-03-02T09:15:15.222Z,3.23
2023-03-02T09:18:42.382Z,3.31
2023-03-02T09:22:10.135Z,3.39
2023-03-02T09:25:36.923Z,3.42
2023-03-02T09:29:03.867Z,3.49
2023-03-02T09:32:30.667Z,3.57
2023-03-02T09:35:58.110Z,3.68
2023-03-02T09:39:25.071Z,3.72
2023-03-02T09:43:25.777Z,3.77
2023-03-02T09:46:55.713Z,3.84
2023-03-02T09:50:31.980Z,3.94
2023-03-02T09:54:05.468Z,4.03
2023-03-02T09:57:36.292Z,4.11
2023-03-02T10:01:05.956Z,4.21
2023-03-02T10:04:39.077Z,4.31
2023-03-02T10:08:06.789Z,4.42
2023-03-02T10:11:44.932Z,4.54
2023-03-02T10:15:18.282Z,4.66
2023-03-02T10:18:49.497Z,4.74
2023-03-02T10:22:24.171Z,4.77
2023-03-02T10:25:56.011Z,4.83
2023-03-02T10:29:41.169Z,4.94
2023-03-02T10:33:17.461Z,5.04
2023-03-02T10:36:47.852Z,5.10
2023-03-02T10:40:29.939Z,5.16
2023-03-02T10:44:00.119Z,5.27
2023-03-02T10:47:29.553Z,5.41
2023-03-02T10:50:59.566Z,5.51
2023-03-02T10:54:28.451Z,5.62
2023-03-02T10:58:06.710Z,5.71
2023-03-02T11:01:34.651Z,5.77
2023-03-02T11:05:20.899Z,5.93
2023-03-02T11:08:48.199Z,6.13
2023-03-02T11:12:19.562Z,6.30
2023-03-02T11:15:49.419Z,6.38
2023-03-02T11:19:19.452Z,6.41
2023-03-02T11:22:55.468Z,6.51
2023-03-02T11:26:26.713Z,6.61
2023-03-02T11:29:59.309Z,6.73
2023-03-02T11:33:32.182Z,6.87
2023-03-02T11:37:15.634Z,6.99
2023-03-02T11:40:48.344Z,7.13
2023-03-02T11:44:20.025Z,7.15
2023-03-02T11:47:57.419Z,7.18
2023-03-02T11:51:31.228Z,7.27
2023-03-02T11:55:03.278Z,7.39
2023-03-02T11:58:31.694Z,7.53
2023-03-02T12:02:00.883Z,7.65
2023-03-02T12:05:30.483Z,7.81
2023-03-02T12:09:09.001Z,8.01
2023-03-02T12:12:44.369Z,8.24
2023-03-02T12:16:24.484Z,8.43
2023-03-02T12:19:53.120Z,8.63
2023-03-02T12:23:27.387Z,8.80
2023-03-02T12:27:04.234Z,9.03
2023-03-02T12:30:40.542Z,9.19
2023-03-02T12:34:24.814Z,9.31
2023-03-02T12:37:57.482Z,9.30
2023-03-02T12:41:39.233Z,9.40
2023-03-02T12:45:16.369Z,9.55
2023-03-02T12:48:49.114Z,9.71
2023-03-02T12:52:31.986Z,9.87
2023-03-02T12:55:59.509Z,9.88
2023-03-02T12:59:29.355Z,10.02
2023-03-02T13:02:57.970Z,10.20
2023-03-02T13:06:27.734Z,10.39
2023-03-02T13:09:57.430Z,10.57
2023-03-02T13:13:27.168Z,10.79
2023-03-02T13:17:03.553Z,10.94
2023-03-02T13:20:31.503Z,11.05
2023-03-02T13:24:05.132Z,11.13
2023-03-02T13:27:34.196Z,11.23
2023-03-02T13:31:03.983Z,11.39
2023-03-02T13:34:32.383Z,11.53
2023-03-02T13:38:02.802Z,11.57
2023-03-02T13:41:31.800Z,11.63
2023-03-02T13:44:58.717Z,11.77
2023-03-02T13:48:31.569Z,11.87
2023-03-02T13:52:08.138Z,11.89
2023-03-02T13:55:36.745Z,11.95
2023-03-02T13:59:04.625Z,11.98
2023-03-02T14:02:33.311Z,12.04
2023-03-02T14:06:02.652Z,12.12
2023-03-02T14:09:29.528Z,12.20
2023-03-02T14:13:04.678Z,12.28
2023-03-02T14:16:32.153Z,12.33
2023-03-02T14:19:59.246Z,12.35
2023-03-02T14:23:26.534Z,12.35
2023-03-02T14:26:53.520Z,12.29
2023-03-02T14:30:22.608Z,12.19
2023-03-02T14:33:49.858Z,11.94
2023-03-02T14:37:19.379Z,11.68
2023-03-02T14:40:46.822Z,11.54
2023-03-02T14:44:16.752Z,11.40
2023-03-02T14:47:43.626Z,11.25
2023-03-02T14:51:21.413Z,11.15
2023-03-02T14:54:52.595Z,11.00
2023-03-02T14:58:21.763Z,10.90
2023-03-02T15:01:48.729Z,10.72
2023-03-02T15:05:21.175Z,10.50
2023-03-02T15:08:47.471Z,10.32
2023-03-02T15:12:14.123Z,10.18
2023-03-02T15:15:43.396Z,10.02
2023-03-02T15:19:10.549Z,9.85
2023-03-02T15:22:38.861Z,9.64
2023-03-02T15:26:06.958Z,9.42
2023-03-02T15:29:34.398Z,9.25
2023-03-02T15:33:02.350Z,9.09
2023-03-02T15:36:29.725Z,8.94
2023-03-02T15:40:02.554Z,8.82
2023-03-02T15:43:29.728Z,8.68
2023-03-02T15:46:59.740Z,8.53
2023-03-02T15:50:26.415Z,8.37
2023-03-02T15:53:53.222Z,8.23
2023-03-02T15:57:20.196Z,8.09
2023-03-02T16:00:48.392Z,7.97
2023-03-02T16:04:16.064Z,7.85
2023-03-02T16:07:44.390Z,7.68
2023-03-02T16:11:12.338Z,7.49
2023-03-02T16:14:40.330Z,7.34
2023-03-02T16:18:07.792Z,7.23
2023-03-02T16:21:37.984Z,7.09
2023-03-02T16:25:07.399Z,6.96
2023-03-02T16:28:34.298Z,6.80
2023-03-02T16:32:01.022Z,6.63
2023-03-02T16:35:29.036Z,6.49
2023-03-02T16:38:56.077Z,6.35
2023-03-02T16:42:23.933Z,6.19
2023-03-02T16:45:50.834Z,6.02
2023-03-02T16:49:17.802Z,5.83
2023-03-02T16:52:46.543Z,5.64
2023-03-02T16:56:14.598Z,5.47
2023-03-02T16:59:41.245Z,5.31
2023-03-02T17:03:08.303Z,5.19
2023-03-02T17:06:36.356Z,5.09
2023-03-02T17:10:03.490Z,4.94
2023-03-02T17:13:30.727Z,4.80
2023-03-02T17:16:58.449Z,4.68
2023-03-02T17:20:26.333Z,4.53
2023-03-02T17:23:53.476Z,4.38
2023-03-02T17:27:25.362Z,4.24
2023-03-02T17:30:53.407Z,4.12
2023-03-02T17:34:20.558Z,4.01
2023-03-02T17:37:48.019Z,3.87
2023-03-02T17:41:15.758Z,3.77
2023-03-02T17:44:44.079Z,3.68
2023-03-02T17:48:10.841Z,3.55
2023-03-02T17:51:37.555Z,3.45
2023-03-02T17:55:04.834Z,3.34
2023-03-02T17:58:44.353Z,3.25
2023-03-02T18:02:13.200Z,3.14
2023-03-02T18:05:40.936Z,3.02
2023-03-02T18:09:08.586Z,2.91
2023-03-02T18:12:35.437Z,2.82
2023-03-02T18:16:02.721Z,2.75
2023-03-02T18:19:30.479Z,2.67
2023-03-02T18:22:59.442Z,2.60
2023-03-02T18:26:26.498Z,2.51
2023-03-02T18:29:53.608Z,2.43
2023-03-02T18:33:20.803Z,2.37
2023-03-02T18:36:47.925Z,2.30
2023-03-02T18:40:15.844Z,2.26
2023-03-02T18:43:43.922Z,2.22
2023-03-02T18:47:11.836Z,2.21
2023-03-02T18:50:39.976Z,2.23
2023-03-02T18:54:07.829Z,2.28
2023-03-02T18:57:35.087Z,2.33
2023-03-02T19:01:02.473Z,2.38
2023-03-02T19:04:31.274Z,2.37
2023-03-02T19:08:00.985Z,2.34
2023-03-02T19:11:28.387Z,2.27
2023-03-02T19:14:56.080Z,2.20
2023-03-02T19:18:25.407Z,2.14
2023-03-02T19:21:52.666Z,2.05
2023-03-02T19:25:19.684Z,1.96
2023-03-02T19:28:46.964Z,1.88
2023-03-02T19:32:15.024Z,1.79
2023-03-02T19:35:55.570Z,1.71
2023-03-02T19:39:23.098Z,1.64
2023-03-02T19:42:57.218Z,1.61
2023-03-02T19:46:32.607Z,1.55
2023-03-02T19:50:02.090Z,1.49
2023-03-02T19:53:31.702Z,1.45
2023-03-02T19:57:03.856Z,1.41
2023-03-02T20:00:38.916Z,1.39
2023-03-02T20:04:09.682Z,1.38
2023-03-02T20:07:46.865Z,1.38
2023-03-02T20:11:23.024Z,1.39
2023-03-02T20:14:59.198Z,1.40
2023-03-02T20:18:33.739Z,1.42
2023-03-02T20:22:07.508Z,1.47
2023-03-02T20:25:40.264Z,1.51
2023-03-02T20:29:08.456Z,1.53
2023-03-02T20:32:38.642Z,1.55
2023-03-02T20:36:12.475Z,1.49
2023-03-02T20:39:44.480Z,1.43
2023-03-02T20:43:16.087Z,1.39
2023-03-02T20:46:49.554Z,1.32
2023-03-02T20:50:25.926Z,1.25
2023-03-02T20:53:54.767Z,1.18
2023-03-02T20:57:25.656Z,1.12
2023-03-02T21:00:56.180Z,1.04
2023-03-02T21:04:24.778Z,0.97
2023-03-02T21:07:54.243Z,0.92
2023-03-02T21:11:23.819Z,0.85
2023-03-02T21:14:51.861Z,0.78
2023-03-02T21:18:21.519Z,0.73
2023-03-02T21:21:55.000Z,0.68
2023-03-02T21:25:25.871Z,0.65
2023-03-02T21:28:58.651Z,0.63
2023-03-02T21:32:26.713Z,0.63
2023-03-02T21:35:59.863Z,0.63
2023-03-02T21:39:29.858Z,0.65
2023-03-02T21:43:10.563Z,0.66
2023-03-02T21:46:43.548Z,0.71
2023-03-02T21:50:15.907Z,0.76
2023-03-02T21:53:46.547Z,0.82
2023-03-02T21:57:14.382Z,0.85
2023-03-02T22:00:43.357Z,0.83
2023-03-02T22:04:11.968Z,0.79
2023-03-02T22:07:40.043Z,0.75
2023-03-02T22:11:12.809Z,0.70
2023-03-02T22:14:45.458Z,0.65
2023-03-02T22:18:18.691Z,0.59
2023-03-02T22:21:51.570Z,0.53
2023-03-02T22:25:22.581Z,0.46
2023-03-02T22:28:54.819Z,0.41
2023-03-02T22:32:27.432Z,0.34
2023-03-02T22:36:02.362Z,0.27
2023-03-02T22:39:41.076Z,0.22
2023-03-02T22:43:22.594Z,0.19
2023-03-02T22:46:50.336Z,0.16
2023-03-02T22:50:27.481Z,0.12
2023-03-02T22:53:56.543Z,0.08
2023-03-02T22:57:33.017Z,0.09
2023-03-02T23:01:00.980Z,0.10
2023-03-02T23:04:32.631Z,0.05
2023-03-02T23:08:17.900Z,0.16
2023-03-02T23:11:46.316Z,0.23
2023-03-02T23:15:21.896Z,0.29
2023-03-02T23:18:49.413Z,0.36
2023-03-02T23:22:16.752Z,0.43
2023-03-02T23:25:47.645Z,0.51
2023-03-02T23:29:16.582Z,0.55
2023-03-02T23:32:44.360Z,0.59
2023-03-02T23:36:13.382Z,0.54
2023-03-02T23:39:39.766Z,0.48
2023-03-02T23:43:07.794Z,0.47
2023-03-02T23:46:35.659Z,0.44
2023-03-02T23:50:02.491Z,0.39
2023-03-02T23:53:32.028Z,0.30
2023-03-02T23:56:58.897Z,0.22
